createdAt,value
2022-09-01T00:01:54.797Z,3.10
2022-09-01T00:04:27.361Z,3.00
2022-09-01T00:06:55.545Z,2.90
2022-09-01T00:09:23.644Z,2.90
2022-09-01T00:11:54.035Z,3.00
2022-09-01T00:14:30.666Z,3.10
2022-09-01T00:17:00.290Z,3.20
2022-09-01T00:19:29.815Z,3.10
2022-09-01T00:21:58.261Z,3.20
2022-09-01T00:24:26.998Z,2.90
2022-09-01T00:26:55.362Z,3.40
2022-09-01T00:29:25.236Z,3.30
2022-09-01T00:31:53.641Z,3.10
2022-09-01T00:34:21.719Z,3.00
2022-09-01T00:36:49.862Z,2.90
2022-09-01T00:39:17.686Z,3.20
2022-09-01T00:41:47.106Z,3.30
2022-09-01T00:44:17.353Z,3.00
2022-09-01T00:46:49.844Z,2.90
2022-09-01T00:49:34.069Z,3.10
2022-09-01T00:52:08.141Z,3.00
2022-09-01T00:54:38.030Z,2.80
2022-09-01T00:57:06.648Z,2.80
2022-09-01T00:59:36.222Z,2.90
2022-09-01T01:02:04.007Z,3.10
2022-09-01T01:04:34.047Z,3.00
2022-09-01T01:07:02.397Z,2.80
2022-09-01T01:09:32.091Z,2.90
2022-09-01T01:12:00.895Z,2.90
2022-09-01T01:14:32.085Z,2.80
2022-09-01T01:17:01.012Z,3.00
2022-09-01T01:19:54.584Z,3.10
2022-09-01T01:22:46.380Z,3.00
2022-09-01T01:25:14.531Z,3.00
2022-09-01T01:27:43.131Z,3.70
2022-09-01T01:30:12.226Z,3.20
2022-09-01T01:32:44.029Z,3.00
2022-09-01T01:35:14.879Z,3.10
2022-09-01T01:37:45.953Z,3.30
2022-09-01T01:40:18.288Z,3.10
2022-09-01T01:42:48.083Z,3.00
2022-09-01T01:45:17.347Z,3.20
2022-09-01T01:47:48.240Z,3.10
2022-09-01T01:50:16.467Z,3.00
2022-09-01T01:52:45.530Z,3.10
2022-09-01T01:55:13.935Z,3.10
2022-09-01T01:57:49.961Z,3.20
2022-09-01T02:00:27.068Z,3.30
2022-09-01T02:02:59.014Z,3.30
2022-09-01T02:05:29.724Z,3.10
2022-09-01T02:08:02.072Z,3.20
2022-09-01T02:10:34.732Z,3.30
2022-09-01T02:13:06.056Z,3.00
2022-09-01T02:15:36.083Z,3.30
2022-09-01T02:18:05.223Z,3.30
2022-09-01T02:20:33.049Z,3.00
2022-09-01T02:23:09.458Z,3.20
2022-09-01T02:25:49.343Z,3.20
2022-09-01T02:28:27.879Z,3.30
2022-09-01T02:30:56.177Z,3.20
2022-09-01T02:33:25.512Z,3.20
2022-09-01T02:35:55.003Z,3.40
2022-09-01T02:38:26.168Z,3.40
2022-09-01T02:40:54.171Z,3.50
2022-09-01T02:43:22.880Z,3.60
2022-09-01T02:45:55.546Z,3.60
2022-09-01T02:48:26.684Z,3.30
2022-09-01T02:50:57.055Z,3.50
2022-09-01T02:53:25.343Z,3.50
2022-09-01T02:55:52.961Z,3.50
2022-09-01T02:58:24.747Z,3.40
2022-09-01T03:00:54.366Z,3.50
2022-09-01T03:03:22.540Z,3.50
2022-09-01T03:05:56.469Z,3.60
2022-09-01T03:08:25.109Z,4.10
2022-09-01T03:10:54.035Z,4.30
2022-09-01T03:13:23.979Z,5.30
2022-09-01T03:15:51.642Z,5.20
2022-09-01T03:18:19.582Z,6.20
2022-09-01T03:20:47.734Z,5.30
2022-09-01T03:23:19.497Z,4.80
2022-09-01T03:25:48.053Z,4.60
2022-09-01T03:28:16.252Z,4.30
2022-09-01T03:30:49.583Z,4.10
2022-09-01T03:33:18.547Z,3.80
2022-09-01T03:35:46.827Z,3.50
2022-09-01T03:38:22.727Z,3.70
2022-09-01T03:40:52.821Z,3.60
2022-09-01T03:43:25.017Z,3.40
2022-09-01T03:45:54.312Z,4.00
2022-09-01T03:48:25.154Z,3.50
2022-09-01T03:50:52.853Z,3.50
2022-09-01T03:53:22.991Z,3.50
2022-09-01T03:55:51.140Z,3.70
2022-09-01T03:58:19.559Z,4.20
2022-09-01T04:00:49.416Z,4.90
2022-09-01T04:03:28.810Z,4.40
2022-09-01T04:05:57.643Z,4.10
2022-09-01T04:08:32.367Z,3.60
2022-09-01T04:11:03.985Z,3.70
2022-09-01T04:13:36.212Z,4.00
2022-09-01T04:16:10.887Z,4.10
2022-09-01T04:18:40.309Z,3.90
2022-09-01T04:21:08.394Z,3.80
2022-09-01T04:23:37.311Z,3.70
2022-09-01T04:26:09.628Z,4.00
2022-09-01T04:28:39.217Z,4.00
2022-09-01T04:31:09.410Z,4.60
2022-09-01T04:33:40.127Z,3.80
2022-09-01T04:36:14.537Z,3.60
2022-09-01T04:38:42.362Z,3.70
2022-09-01T04:41:09.951Z,3.70
2022-09-01T04:43:37.821Z,3.60
2022-09-01T04:46:06.117Z,3.40
2022-09-01T04:48:35.058Z,3.40
2022-09-01T04:51:10.511Z,3.60
2022-09-01T04:53:38.808Z,3.70
2022-09-01T04:56:08.081Z,3.90
2022-09-01T04:58:37.550Z,3.60
2022-09-01T05:01:14.152Z,3.70
2022-09-01T05:03:41.897Z,3.80
2022-09-01T05:06:13.616Z,3.70
2022-09-01T05:08:42.213Z,4.00
2022-09-01T05:11:17.015Z,4.10
2022-09-01T05:13:45.550Z,3.60
2022-09-01T05:16:15.965Z,3.90
2022-09-01T05:18:49.117Z,3.30
2022-09-01T05:21:18.246Z,3.40
2022-09-01T05:23:47.237Z,3.40
2022-09-01T05:26:18.311Z,3.50
2022-09-01T05:28:47.718Z,3.50
2022-09-01T05:31:20.207Z,3.60
2022-09-01T05:33:50.144Z,3.30
2022-09-01T05:36:20.258Z,3.40
2022-09-01T05:38:48.907Z,3.50
2022-09-01T05:41:17.684Z,3.70
2022-09-01T05:43:48.334Z,3.50
2022-09-01T05:46:17.700Z,3.50
2022-09-01T05:48:46.852Z,3.30
2022-09-01T05:51:42.857Z,3.30
2022-09-01T05:54:08.246Z,3.20
2022-09-01T05:56:43.696Z,2.80
2022-09-01T05:59:23.526Z,3.10
2022-09-01T06:01:53.781Z,2.90
2022-09-01T06:04:23.202Z,2.70
2022-09-01T06:07:10.341Z,2.60
2022-09-01T06:09:41.839Z,2.80
2022-09-01T06:12:18.380Z,2.70
2022-09-01T06:14:47.303Z,2.60
2022-09-01T06:17:16.921Z,2.70
2022-09-01T06:19:46.856Z,2.60
2022-09-01T06:22:14.676Z,2.80
2022-09-01T06:24:43.621Z,2.50
2022-09-01T06:27:14.977Z,2.50
2022-09-01T06:29:43.033Z,2.80
2022-09-01T06:32:12.717Z,2.60
2022-09-01T06:34:44.919Z,2.90
2022-09-01T06:37:13.587Z,2.70
2022-09-01T06:39:41.557Z,2.50
2022-09-01T06:42:11.453Z,3.10
2022-09-01T06:44:42.036Z,2.80
2022-09-01T06:47:10.425Z,2.90
2022-09-01T06:49:40.369Z,2.90
2022-09-01T06:52:08.976Z,2.90
2022-09-01T06:54:39.345Z,2.90
2022-09-01T06:59:55.320Z,2.90
2022-09-01T07:02:26.880Z,2.90
2022-09-01T07:04:55.057Z,3.10
2022-09-01T07:10:22.606Z,2.90
2022-09-01T07:13:11.523Z,3.00
2022-09-01T07:18:31.707Z,2.80
2022-09-01T07:21:35.865Z,2.70
2022-09-01T07:26:46.381Z,2.80
2022-09-01T07:29:16.694Z,2.90
2022-09-01T07:32:41.121Z,2.80
2022-09-01T07:34:40.238Z,2.60
2022-09-01T07:38:04.392Z,2.60
2022-09-01T07:42:56.655Z,2.40
2022-09-01T07:45:47.195Z,2.40
2022-09-01T07:51:35.562Z,2.30
2022-09-01T07:53:55.781Z,2.20
2022-09-01T07:56:24.672Z,1.90
2022-09-01T07:58:53.051Z,1.60
2022-09-01T08:01:22.635Z,1.50
2022-09-01T08:03:52.306Z,1.40
2022-09-01T08:06:21.590Z,1.30
2022-09-01T08:08:56.622Z,1.60
2022-09-01T08:11:58.118Z,1.70
2022-09-01T08:14:14.570Z,1.50
2022-09-01T08:16:51.880Z,1.40
2022-09-01T08:19:20.340Z,1.70
2022-09-01T08:21:48.032Z,1.10
2022-09-01T08:24:15.944Z,1.10
2022-09-01T08:26:44.701Z,1.00
2022-09-01T08:29:13.705Z,1.00
2022-09-01T08:31:41.624Z,0.80
2022-09-01T08:34:12.890Z,1.00
2022-09-01T08:36:41.435Z,1.10
2022-09-01T08:39:09.110Z,1.10
2022-09-01T08:41:47.015Z,0.90
2022-09-01T08:44:41.991Z,0.60
2022-09-01T08:47:15.318Z,1.00
2022-09-01T08:49:47.857Z,1.00
2022-09-01T08:52:16.251Z,1.00
2022-09-01T08:54:52.304Z,0.80
2022-09-01T08:57:21.962Z,0.80
2022-09-01T08:59:50.002Z,0.50
2022-09-01T09:02:34.285Z,1.00
2022-09-01T09:05:15.408Z,1.10
2022-09-01T09:08:06.877Z,0.90
2022-09-01T09:10:44.202Z,0.90
2022-09-01T09:15:49.661Z,0.70
2022-09-01T09:18:54.871Z,0.80
2022-09-01T09:21:22.906Z,0.80
2022-09-01T09:23:55.971Z,0.90
2022-09-01T09:26:24.353Z,0.90
2022-09-01T09:28:55.247Z,0.60
2022-09-01T09:31:26.072Z,0.80
2022-09-01T09:33:55.499Z,0.60
2022-09-01T09:36:52.380Z,0.70
2022-09-01T09:39:23.393Z,0.80
2022-09-01T09:42:09.736Z,0.70
2022-09-01T09:44:51.205Z,0.80
2022-09-01T09:47:46.058Z,0.60
2022-09-01T09:50:17.515Z,0.90
2022-09-01T09:52:47.997Z,0.80
2022-09-01T09:55:31.835Z,0.80
2022-09-01T09:58:01.303Z,0.70
2022-09-01T10:00:31.054Z,0.80
2022-09-01T10:03:01.564Z,0.70
2022-09-01T10:08:05.619Z,0.80
2022-09-01T10:10:36.528Z,0.50
2022-09-01T10:13:04.897Z,0.60
2022-09-01T10:15:35.429Z,0.80
2022-09-01T10:18:28.948Z,0.50
2022-09-01T10:21:00.940Z,0.50
2022-09-01T10:23:31.502Z,0.50
2022-09-01T10:26:05.899Z,0.50
2022-09-01T10:28:39.217Z,1.00
2022-09-01T10:31:09.143Z,0.70
2022-09-01T10:33:37.809Z,0.50
2022-09-01T10:36:07.872Z,0.80
2022-09-01T10:38:36.068Z,0.70
2022-09-01T10:41:14.279Z,0.90
2022-09-01T10:43:48.139Z,0.40
2022-09-01T10:46:26.711Z,0.60
2022-09-01T10:49:13.792Z,0.70
2022-09-01T10:51:50.566Z,0.70
2022-09-01T10:54:39.072Z,0.70
2022-09-01T10:57:30.606Z,0.60
2022-09-01T11:06:13.050Z,0.90
2022-09-01T11:08:58.491Z,0.30
2022-09-01T11:11:26.396Z,0.50
2022-09-01T11:13:59.157Z,0.80
2022-09-01T11:16:53.194Z,0.70
2022-09-01T11:19:21.849Z,0.70
2022-09-01T11:22:04.243Z,0.60
2022-09-01T11:24:52.019Z,0.50
2022-09-01T11:27:46.182Z,0.40
2022-09-01T11:30:17.721Z,0.50
2022-09-01T11:32:49.223Z,0.50
2022-09-01T11:35:19.307Z,0.60
2022-09-01T11:37:52.463Z,0.30
2022-09-01T11:40:40.457Z,0.50
2022-09-01T11:43:12.725Z,0.30
2022-09-01T11:45:49.156Z,0.40
2022-09-01T11:48:18.450Z,0.50
2022-09-01T11:50:56.818Z,0.60
2022-09-01T11:53:24.739Z,0.80
2022-09-01T11:55:53.403Z,1.00
2022-09-01T11:58:28.145Z,1.00
2022-09-01T12:01:19.452Z,0.80
2022-09-01T12:03:48.743Z,0.50
2022-09-01T12:06:23.039Z,0.60
2022-09-01T12:08:56.050Z,0.80
2022-09-01T12:11:31.144Z,0.60
2022-09-01T12:14:05.649Z,0.80
2022-09-01T12:16:38.138Z,0.60
2022-09-01T12:19:06.460Z,0.60
2022-09-01T12:21:40.628Z,0.60
2022-09-01T12:24:19.381Z,0.60
2022-09-01T12:26:48.506Z,0.50
2022-09-01T12:29:18.334Z,0.50
2022-09-01T12:31:48.897Z,0.50
2022-09-01T12:34:36.363Z,0.60
2022-09-01T12:37:13.131Z,0.50
2022-09-01T12:39:43.110Z,0.60
2022-09-01T12:42:11.645Z,0.40
2022-09-01T12:44:40.213Z,0.40
2022-09-01T12:47:09.934Z,0.40
2022-09-01T12:49:50.123Z,0.20
2022-09-01T12:52:27.980Z,0.60
2022-09-01T12:54:58.429Z,0.30
2022-09-01T12:57:28.179Z,0.40
2022-09-01T13:00:12.653Z,0.50
2022-09-01T13:02:44.926Z,0.60
2022-09-01T13:05:34.570Z,0.70
2022-09-01T13:08:11.680Z,0.60
2022-09-01T13:10:43.146Z,0.70
2022-09-01T13:13:12.176Z,0.60
2022-09-01T13:15:42.980Z,0.60
2022-09-01T13:18:11.593Z,0.70
2022-09-01T13:20:46.570Z,0.50
2022-09-01T13:23:15.493Z,0.40
2022-09-01T13:25:44.544Z,0.30
2022-09-01T13:28:13.711Z,0.70
2022-09-01T13:30:41.648Z,0.60
2022-09-01T13:33:20.634Z,0.40
2022-09-01T13:35:49.889Z,0.60
2022-09-01T13:38:18.355Z,0.40
2022-09-01T13:40:47.369Z,0.60
2022-09-01T13:43:17.115Z,0.30
2022-09-01T13:45:45.670Z,0.30
2022-09-01T13:48:15.869Z,0.50
2022-09-01T13:53:33.855Z,0.30
2022-09-01T13:56:02.201Z,0.30
2022-09-01T13:58:31.551Z,0.50
2022-09-01T14:01:00.364Z,0.30
2022-09-01T14:03:30.003Z,0.30
2022-09-01T14:05:57.707Z,0.20
2022-09-01T14:08:25.493Z,0.40
2022-09-01T14:10:54.297Z,0.50
2022-09-01T14:13:23.754Z,0.40
2022-09-01T14:15:53.692Z,0.30
2022-09-01T14:18:22.501Z,0.50
2022-09-01T14:20:52.039Z,0.50
2022-09-01T14:23:22.887Z,0.40
2022-09-01T14:25:51.268Z,0.70
2022-09-01T14:28:21.213Z,0.50
2022-09-01T14:33:19.058Z,0.30
2022-09-01T14:35:47.991Z,0.30
2022-09-01T14:38:16.108Z,0.40
2022-09-01T14:40:48.229Z,0.50
2022-09-01T14:43:17.045Z,0.30
2022-09-01T14:45:47.215Z,0.30
2022-09-01T14:48:16.736Z,0.30
2022-09-01T14:50:46.277Z,0.50
2022-09-01T14:53:14.147Z,0.60
2022-09-01T14:55:44.072Z,0.40
2022-09-01T14:58:12.361Z,0.30
2022-09-01T15:00:42.063Z,0.70
2022-09-01T15:03:11.143Z,0.60
2022-09-01T15:05:40.641Z,0.50
2022-09-01T15:08:13.010Z,0.60
2022-09-01T15:10:44.158Z,0.60
2022-09-01T15:13:13.555Z,0.70
2022-09-01T15:15:43.077Z,0.40
2022-09-01T15:18:11.861Z,0.50
2022-09-01T15:20:47.229Z,0.30
2022-09-01T15:23:17.146Z,0.40
2022-09-01T15:25:45.519Z,0.40
2022-09-01T15:28:16.106Z,0.30
2022-09-01T15:30:46.670Z,0.60
2022-09-01T15:33:15.963Z,0.40
2022-09-01T15:35:45.189Z,0.60
2022-09-01T15:38:17.053Z,0.40
2022-09-01T15:40:55.408Z,0.40
2022-09-01T15:43:26.413Z,0.50
2022-09-01T15:45:55.144Z,0.40
2022-09-01T15:48:22.951Z,0.40
2022-09-01T15:50:51.270Z,0.40
2022-09-01T15:53:19.327Z,0.40
2022-09-01T15:55:48.042Z,0.50
2022-09-01T15:58:16.930Z,0.60
2022-09-01T16:00:46.124Z,0.40
2022-09-01T16:03:14.629Z,0.30
2022-09-01T16:05:44.350Z,0.20
2022-09-01T16:08:13.286Z,0.50
2022-09-01T16:10:43.819Z,0.40
2022-09-01T16:13:13.344Z,0.50
2022-09-01T16:15:44.695Z,0.40
2022-09-01T16:18:21.437Z,0.30
2022-09-01T16:21:08.892Z,0.30
2022-09-01T16:23:43.114Z,0.40
2022-09-01T16:26:14.532Z,0.50
2022-09-01T16:28:44.883Z,0.40
2022-09-01T16:31:22.393Z,0.50
2022-09-01T16:33:56.078Z,0.40
2022-09-01T16:36:45.146Z,0.60
2022-09-01T16:39:32.801Z,0.40
2022-09-01T16:42:17.295Z,0.60
2022-09-01T16:44:52.673Z,0.40
2022-09-01T16:47:38.046Z,0.70
2022-09-01T16:50:25.096Z,0.40
2022-09-01T16:53:02.818Z,0.40
2022-09-01T16:55:39.714Z,0.50
2022-09-01T16:58:12.187Z,0.40
2022-09-01T17:00:44.125Z,0.60
2022-09-01T17:03:19.195Z,1.00
2022-09-01T17:05:48.835Z,0.70
2022-09-01T17:08:16.680Z,0.80
2022-09-01T17:10:52.470Z,0.80
2022-09-01T17:13:40.091Z,0.40
2022-09-01T17:16:16.060Z,0.50
2022-09-01T17:18:51.667Z,0.40
2022-09-01T17:21:26.009Z,0.50
2022-09-01T17:23:57.520Z,0.40
2022-09-01T17:26:26.754Z,0.40
2022-09-01T17:28:56.550Z,0.50
2022-09-01T17:31:35.099Z,0.40
2022-09-01T17:34:14.715Z,0.60
2022-09-01T17:36:57.829Z,0.60
2022-09-01T17:39:36.756Z,0.60
2022-09-01T17:42:25.304Z,0.70
2022-09-01T17:44:58.399Z,1.10
2022-09-01T17:47:32.508Z,0.70
2022-09-01T17:50:03.592Z,0.80
2022-09-01T17:52:31.461Z,0.80
2022-09-01T17:55:02.658Z,0.80
2022-09-01T17:57:43.050Z,1.00
2022-09-01T18:00:17.247Z,0.80
2022-09-01T18:02:58.720Z,0.70
2022-09-01T18:05:28.185Z,1.10
2022-09-01T18:08:05.648Z,0.90
2022-09-01T18:10:45.628Z,1.10
2022-09-01T18:13:36.211Z,0.80
2022-09-01T18:16:14.550Z,1.00
2022-09-01T18:18:44.946Z,1.10
2022-09-01T18:21:20.635Z,1.20
2022-09-01T18:23:55.795Z,1.30
2022-09-01T18:26:33.003Z,0.60
2022-09-01T18:29:01.759Z,1.00
2022-09-01T18:31:29.651Z,1.00
2022-09-01T18:34:24.012Z,0.70
2022-09-01T18:36:59.256Z,0.80
2022-09-01T18:39:37.491Z,0.70
2022-09-01T18:42:05.928Z,1.00
2022-09-01T18:44:53.167Z,1.10
2022-09-01T18:47:30.037Z,0.90
2022-09-01T18:50:05.075Z,0.70
2022-09-01T18:52:36.626Z,1.30
2022-09-01T18:55:11.974Z,0.90
2022-09-01T18:57:41.985Z,0.60
2022-09-01T19:00:19.419Z,1.00
2022-09-01T19:02:56.669Z,1.00
2022-09-01T19:05:45.317Z,1.20
2022-09-01T19:08:23.643Z,1.00
2022-09-01T19:11:11.359Z,0.90
2022-09-01T19:14:00.263Z,1.00
2022-09-01T19:16:41.651Z,1.20
2022-09-01T19:19:16.122Z,1.00
2022-09-01T19:21:45.219Z,1.10
2022-09-01T19:24:18.136Z,1.10
2022-09-01T19:26:49.755Z,1.00
2022-09-01T19:29:30.798Z,1.40
2022-09-01T19:32:06.492Z,1.10
2022-09-01T19:35:01.590Z,1.10
2022-09-01T19:37:30.387Z,1.10
2022-09-01T19:39:58.851Z,1.40
2022-09-01T19:42:27.349Z,1.10
2022-09-01T19:45:12.619Z,1.40
2022-09-01T19:47:59.727Z,1.30
2022-09-01T19:50:32.660Z,1.50
2022-09-01T19:53:07.748Z,1.50
2022-09-01T19:56:02.241Z,1.30
2022-09-01T19:58:51.793Z,1.70
2022-09-01T20:01:44.512Z,1.70
2022-09-01T20:04:33.811Z,1.50
2022-09-01T20:07:03.744Z,1.40
2022-09-01T20:09:50.488Z,1.40
2022-09-01T20:12:22.863Z,1.40
2022-09-01T20:14:58.711Z,1.40
2022-09-01T20:17:34.879Z,1.40
2022-09-01T20:20:13.466Z,1.30
2022-09-01T20:22:51.801Z,1.20
2022-09-01T20:25:21.682Z,1.10
2022-09-01T20:28:25.963Z,1.20
2022-09-01T20:30:57.301Z,1.00
2022-09-01T20:33:34.243Z,1.10
2022-09-01T20:36:14.179Z,1.10
2022-09-01T20:39:15.136Z,1.10
2022-09-01T20:41:46.286Z,1.40
2022-09-01T20:44:23.734Z,1.10
2022-09-01T20:46:54.080Z,1.40
2022-09-01T20:49:23.797Z,1.10
2022-09-01T20:52:00.460Z,1.30
2022-09-01T20:54:38.335Z,1.10
2022-09-01T20:57:06.842Z,1.00
2022-09-01T20:59:37.752Z,1.10
2022-09-01T21:02:14.788Z,1.10
2022-09-01T21:07:22.203Z,1.00
2022-09-01T21:09:49.951Z,1.00
2022-09-01T21:12:23.937Z,1.00
2022-09-01T21:14:52.408Z,0.90
2022-09-01T21:17:42.246Z,1.00
2022-09-01T21:20:13.957Z,1.10
2022-09-01T21:22:42.047Z,1.00
2022-09-01T21:25:11.789Z,1.10
2022-09-01T21:27:51.388Z,0.90
2022-09-01T21:30:19.903Z,0.90
2022-09-01T21:32:47.830Z,1.00
2022-09-01T21:35:18.033Z,1.10
2022-09-01T21:37:46.146Z,1.00
2022-09-01T21:40:14.939Z,1.10
2022-09-01T21:42:43.574Z,1.20
2022-09-01T21:45:13.434Z,1.00
2022-09-01T21:47:42.108Z,1.30
2022-09-01T21:50:10.760Z,1.40
2022-09-01T21:52:39.002Z,1.30
2022-09-01T21:55:07.772Z,1.30
2022-09-01T21:57:36.936Z,1.70
2022-09-01T22:00:10.274Z,1.50
2022-09-01T22:02:38.752Z,1.40
2022-09-01T22:05:07.661Z,1.30
2022-09-01T22:07:40.512Z,1.80
2022-09-01T22:10:10.334Z,1.60
2022-09-01T22:12:38.971Z,1.60
2022-09-01T22:15:08.306Z,1.70
2022-09-01T22:17:36.369Z,1.80
2022-09-01T22:20:05.802Z,1.70
2022-09-01T22:22:33.750Z,1.80
2022-09-01T22:25:05.997Z,1.70
2022-09-01T22:27:34.482Z,2.10
2022-09-01T22:30:02.971Z,1.60
2022-09-01T22:32:36.250Z,1.90
2022-09-01T22:35:08.479Z,1.90
2022-09-01T22:37:36.999Z,2.00
2022-09-01T22:40:05.826Z,2.10
2022-09-01T22:42:33.966Z,2.20
2022-09-01T22:45:02.200Z,2.40
2022-09-01T22:47:29.917Z,2.20
2022-09-01T22:50:00.343Z,1.60
2022-09-01T22:52:30.145Z,1.70
2022-09-01T22:54:58.647Z,1.70
2022-09-01T22:57:29.286Z,1.30
2022-09-01T22:59:56.947Z,1.70
2022-09-01T23:02:24.605Z,1.20
2022-09-01T23:04:53.358Z,1.40
2022-09-01T23:07:21.299Z,1.40
2022-09-01T23:09:49.295Z,1.90
2022-09-01T23:12:17.271Z,1.90
2022-09-01T23:14:45.010Z,1.80
2022-09-01T23:17:14.327Z,1.60
2022-09-01T23:19:42.318Z,1.70
2022-09-01T23:22:10.979Z,1.80
2022-09-01T23:24:38.859Z,1.40
2022-09-01T23:27:06.625Z,1.70
2022-09-01T23:29:34.595Z,1.80
2022-09-01T23:32:02.996Z,1.50
2022-09-01T23:34:31.049Z,2.10
2022-09-01T23:36:58.896Z,1.60
2022-09-01T23:39:27.173Z,1.70
2022-09-01T23:41:54.945Z,1.70
2022-09-01T23:44:23.845Z,1.60
2022-09-01T23:46:51.586Z,1.80
2022-09-01T23:49:19.382Z,1.90
2022-09-01T23:51:48.911Z,1.70
2022-09-01T23:54:16.879Z,1.90
2022-09-01T23:56:44.595Z,2.00
2022-09-01T23:59:13.264Z,2.00
